sensor_id;sensor_type;location;lat;lon;timestamp;temperature;humidity
72919;SHT30;68407;55.694;26.994;2023-08-08T00:00:38;20.4;77.2
72919;SHT30;68407;55.694;26.994;2023-08-08T00:05:48;20.6;76.9
72919;SHT30;68407;55.694;26.994;2023-08-08T00:10:56;20.5;76.3
72919;SHT30;68407;55.694;26.994;2023-08-08T00:15:24;20.1;77.4
72919;SHT30;68407;55.694;26.994;2023-08-08T00:20:24;20.3;77.7
72919;SHT30;68407;55.694;26.994;2023-08-08T00:25:48;20.4;77.4
72919;SHT30;68407;55.694;26.994;2023-08-08T00:30:48;20.4;76.8
72919;SHT30;68407;55.694;26.994;2023-08-08T00:35:38;20.1;77.1
72919;SHT30;68407;55.694;26.994;2023-08-08T00:40:54;20.1;77.7
72919;SHT30;68407;55.694;26.994;2023-08-08T00:46:04;20.1;78
72919;SHT30;68407;55.694;26.994;2023-08-08T00:50:32;20.1;78.3
72919;SHT30;68407;55.694;26.994;2023-08-08T00:56:04;20.4;77.3
72919;SHT30;68407;55.694;26.994;2023-08-08T01:01:04;20.3;76.4
72919;SHT30;68407;55.694;26.994;2023-08-08T01:05:41;20.3;77.3
72919;SHT30;68407;55.694;26.994;2023-08-08T01:10:39;20.5;76.6
72919;SHT30;68407;55.694;26.994;2023-08-08T01:15:24;20.3;76.9
72919;SHT30;68407;55.694;26.994;2023-08-08T01:20:42;20.3;76.5
72919;SHT30;68407;55.694;26.994;2023-08-08T01:25:24;20.4;76.9
72919;SHT30;68407;55.694;26.994;2023-08-08T01:30:30;20.5;76.4
72919;SHT30;68407;55.694;26.994;2023-08-08T01:35:58;20.4;76.5
72919;SHT30;68407;55.694;26.994;2023-08-08T01:40:54;20.3;76.7
72919;SHT30;68407;55.694;26.994;2023-08-08T01:45:38;20.1;76.2
72919;SHT30;68407;55.694;26.994;2023-08-08T01:50:24;20.3;77
72919;SHT30;68407;55.694;26.994;2023-08-08T01:56:04;20.1;76.7
72919;SHT30;68407;55.694;26.994;2023-08-08T02:00:30;20.1;76.5
72919;SHT30;68407;55.694;26.994;2023-08-08T02:05:30;20;76.9
72919;SHT30;68407;55.694;26.994;2023-08-08T02:10:54;20;77
72919;SHT30;68407;55.694;26.994;2023-08-08T02:15:54;20.2;77.1
72919;SHT30;68407;55.694;26.994;2023-08-08T02:21:04;20.3;75.9
72919;SHT30;68407;55.694;26.994;2023-08-08T02:25:44;19.9;76.8
72919;SHT30;68407;55.694;26.994;2023-08-08T02:30:30;20.1;76.7
72919;SHT30;68407;55.694;26.994;2023-08-08T02:35:30;20.2;76.6
72919;SHT30;68407;55.694;26.994;2023-08-08T02:41:04;20.3;76.2
72919;SHT30;68407;55.694;26.994;2023-08-08T02:45:54;20.3;76.1
72919;SHT30;68407;55.694;26.994;2023-08-08T02:50:52;20.4;75.2
72919;SHT30;68407;55.694;26.994;2023-08-08T02:56:04;20.4;75.6
72919;SHT30;68407;55.694;26.994;2023-08-08T03:00:46;20.4;75
72919;SHT30;68407;55.694;26.994;2023-08-08T03:05:44;20.3;75.4
72919;SHT30;68407;55.694;26.994;2023-08-08T03:10:30;20.3;75.5
72919;SHT30;68407;55.694;26.994;2023-08-08T03:16:04;20.2;75.6
72919;SHT30;68407;55.694;26.994;2023-08-08T03:21:04;20.3;75.9
72919;SHT30;68407;55.694;26.994;2023-08-08T03:26:04;20.3;74.8
72919;SHT30;68407;55.694;26.994;2023-08-08T03:31:04;20.2;75.7
72919;SHT30;68407;55.694;26.994;2023-08-08T03:35:54;20.4;75
72919;SHT30;68407;55.694;26.994;2023-08-08T03:40:38;20.2;75.3
72919;SHT30;68407;55.694;26.994;2023-08-08T03:45:54;20.2;75.5
72919;SHT30;68407;55.694;26.994;2023-08-08T03:51:04;20.1;75.3
72919;SHT30;68407;55.694;26.994;2023-08-08T03:55:40;20;75.2
72919;SHT30;68407;55.694;26.994;2023-08-08T04:00:36;20;75.6
72919;SHT30;68407;55.694;26.994;2023-08-08T04:06:04;20;75.2
72919;SHT30;68407;55.694;26.994;2023-08-08T04:10:30;20.2;75.4
72919;SHT30;68407;55.694;26.994;2023-08-08T04:16:04;20.7;74
72919;SHT30;68407;55.694;26.994;2023-08-08T04:20:38;20.5;73.7
72919;SHT30;68407;55.694;26.994;2023-08-08T04:25:48;20.3;73.8
72919;SHT30;68407;55.694;26.994;2023-08-08T04:30:48;20.5;74.4
72919;SHT30;68407;55.694;26.994;2023-08-08T04:35:54;20.7;73.5
72919;SHT30;68407;55.694;26.994;2023-08-08T04:40:44;20.9;73
72919;SHT30;68407;55.694;26.994;2023-08-08T04:45:30;21;72
72919;SHT30;68407;55.694;26.994;2023-08-08T04:50:48;21;72.2
72919;SHT30;68407;55.694;26.994;2023-08-08T04:55:38;21.1;72
72919;SHT30;68407;55.694;26.994;2023-08-08T05:00:25;21.1;72
72919;SHT30;68407;55.694;26.994;2023-08-08T05:05:54;20.9;71.9
72919;SHT30;68407;55.694;26.994;2023-08-08T05:10:38;21;71.4
72919;SHT30;68407;55.694;26.994;2023-08-08T05:15:24;21.3;71.3
72919;SHT30;68407;55.694;26.994;2023-08-08T05:20:40;21.4;71.4
72919;SHT30;68407;55.694;26.994;2023-08-08T05:26:02;21.2;70.7
72919;SHT30;68407;55.694;26.994;2023-08-08T05:30:38;21.3;71.6
72919;SHT30;68407;55.694;26.994;2023-08-08T05:35:38;21.4;70.6
72919;SHT30;68407;55.694;26.994;2023-08-08T05:40:44;21;71
72919;SHT30;68407;55.694;26.994;2023-08-08T05:45:54;21;71.5
72919;SHT30;68407;55.694;26.994;2023-08-08T05:50:24;21.1;71.1
72919;SHT30;68407;55.694;26.994;2023-08-08T05:55:30;21.3;70.3
72919;SHT30;68407;55.694;26.994;2023-08-08T06:01:02;21.2;70
72919;SHT30;68407;55.694;26.994;2023-08-08T06:05:46;21.5;71.2
72919;SHT30;68407;55.694;26.994;2023-08-08T06:10:38;22.2;69.8
72919;SHT30;68407;55.694;26.994;2023-08-08T06:15:48;22.8;68
72919;SHT30;68407;55.694;26.994;2023-08-08T06:21:02;23;66.7
72919;SHT30;68407;55.694;26.994;2023-08-08T06:25:34;23.2;66
72919;SHT30;68407;55.694;26.994;2023-08-08T06:30:32;23.3;64.5
72919;SHT30;68407;55.694;26.994;2023-08-08T06:35:54;23.3;64.4
72919;SHT30;68407;55.694;26.994;2023-08-08T06:40:54;23.5;64.3
72919;SHT30;68407;55.694;26.994;2023-08-08T06:46:00;23.8;63.1
72919;SHT30;68407;55.694;26.994;2023-08-08T06:50:44;23.6;62.5
72919;SHT30;68407;55.694;26.994;2023-08-08T06:55:38;23.4;62.4
72919;SHT30;68407;55.694;26.994;2023-08-08T07:00:36;23.3;62.7
72919;SHT30;68407;55.694;26.994;2023-08-08T07:06:02;23.4;62.4
72919;SHT30;68407;55.694;26.994;2023-08-08T07:10:38;23;63.1
72919;SHT30;68407;55.694;26.994;2023-08-08T07:15:52;23;63.3
72919;SHT30;68407;55.694;26.994;2023-08-08T07:21:00;22.9;63
72919;SHT30;68407;55.694;26.994;2023-08-08T07:25:54;22.9;63.2
72919;SHT30;68407;55.694;26.994;2023-08-08T07:30:24;23;62.4
72919;SHT30;68407;55.694;26.994;2023-08-08T07:35:40;23.1;62.3
72919;SHT30;68407;55.694;26.994;2023-08-08T07:41:04;23.5;61.4
72919;SHT30;68407;55.694;26.994;2023-08-08T07:46:04;23.8;61
72919;SHT30;68407;55.694;26.994;2023-08-08T07:50:54;23.8;60.6
72919;SHT30;68407;55.694;26.994;2023-08-08T07:56:04;23.6;61
72919;SHT30;68407;55.694;26.994;2023-08-08T08:00:54;23.6;61.2
72919;SHT30;68407;55.694;26.994;2023-08-08T08:05:38;23.6;60.9
72919;SHT30;68407;55.694;26.994;2023-08-08T08:10:54;23.9;60.6
72919;SHT30;68407;55.694;26.994;2023-08-08T08:16:04;24.2;59.9
72919;SHT30;68407;55.694;26.994;2023-08-08T08:20:48;23.8;60.4
72919;SHT30;68407;55.694;26.994;2023-08-08T08:25:52;23.3;61.5
72919;SHT30;68407;55.694;26.994;2023-08-08T08:31:04;23.3;61.4
72919;SHT30;68407;55.694;26.994;2023-08-08T08:35:24;23.3;61.7
72919;SHT30;68407;55.694;26.994;2023-08-08T08:40:25;23.1;61.7
72919;SHT30;68407;55.694;26.994;2023-08-08T08:45:38;23.2;61.9
72919;SHT30;68407;55.694;26.994;2023-08-08T08:50:48;23.9;60.2
72919;SHT30;68407;55.694;26.994;2023-08-08T08:55:48;23.5;60.8
72919;SHT30;68407;55.694;26.994;2023-08-08T09:00:33;23.3;61
72919;SHT30;68407;55.694;26.994;2023-08-08T09:05:24;23.5;60.5
72919;SHT30;68407;55.694;26.994;2023-08-08T09:10:46;23.6;60.1
72919;SHT30;68407;55.694;26.994;2023-08-08T09:15:38;23.2;60.6
72919;SHT30;68407;55.694;26.994;2023-08-08T09:20:38;23.6;60.4
72919;SHT30;68407;55.694;26.994;2023-08-08T09:25:38;23.5;59.8
72919;SHT30;68407;55.694;26.994;2023-08-08T09:31:02;23.2;60.5
72919;SHT30;68407;55.694;26.994;2023-08-08T09:36:04;23.2;60.7
72919;SHT30;68407;55.694;26.994;2023-08-08T09:50:40;23.3;61.4
72919;SHT30;68407;55.694;26.994;2023-08-08T09:55:54;23.3;61.3
72919;SHT30;68407;55.694;26.994;2023-08-08T10:00:32;23.2;62.1
72919;SHT30;68407;55.694;26.994;2023-08-08T10:05:54;22.9;62.3
72919;SHT30;68407;55.694;26.994;2023-08-08T10:11:04;22.1;64.3
72919;SHT30;68407;55.694;26.994;2023-08-08T10:15:39;22.3;64.2
72919;SHT30;68407;55.694;26.994;2023-08-08T10:20:24;22.5;63.9
72919;SHT30;68407;55.694;26.994;2023-08-08T10:26:05;22.8;63.3
72919;SHT30;68407;55.694;26.994;2023-08-08T10:30:49;22.8;63.1
72919;SHT30;68407;55.694;26.994;2023-08-08T10:35:34;23.1;62.9
72919;SHT30;68407;55.694;26.994;2023-08-08T10:40:24;23.2;62.5
72919;SHT30;68407;55.694;26.994;2023-08-08T10:45:57;23.5;61.6
72919;SHT30;68407;55.694;26.994;2023-08-08T10:50:24;23.6;61.1
72919;SHT30;68407;55.694;26.994;2023-08-08T10:55:44;23.8;59.9
72919;SHT30;68407;55.694;26.994;2023-08-08T11:01:05;23.8;59.4
72919;SHT30;68407;55.694;26.994;2023-08-08T11:05:54;23.3;59.9
72919;SHT30;68407;55.694;26.994;2023-08-08T11:10:34;22.5;60.9
72919;SHT30;68407;55.694;26.994;2023-08-08T11:15:44;21.9;62.4
72919;SHT30;68407;55.694;26.994;2023-08-08T11:21:09;21.6;63.4
72919;SHT30;68407;55.694;26.994;2023-08-08T11:25:32;21.6;63.7
72919;SHT30;68407;55.694;26.994;2023-08-08T11:30:46;21.8;63.6
72919;SHT30;68407;55.694;26.994;2023-08-08T11:35:55;22.6;62.2
72919;SHT30;68407;55.694;26.994;2023-08-08T11:40:27;23.4;61.5
72919;SHT30;68407;55.694;26.994;2023-08-08T11:46:06;23.7;58.4
72919;SHT30;68407;55.694;26.994;2023-08-08T11:50:25;23.2;59.1
72919;SHT30;68407;55.694;26.994;2023-08-08T11:55:30;23.3;58.4
72919;SHT30;68407;55.694;26.994;2023-08-08T12:00:38;23.9;58.6
72919;SHT30;68407;55.694;26.994;2023-08-08T12:06:10;24;58.5
72919;SHT30;68407;55.694;26.994;2023-08-08T12:10:54;23.7;58.4
72919;SHT30;68407;55.694;26.994;2023-08-08T12:15:54;23.7;57.9
72919;SHT30;68407;55.694;26.994;2023-08-08T12:20:54;23.7;57.3
72919;SHT30;68407;55.694;26.994;2023-08-08T12:25:54;23.4;56.1
72919;SHT30;68407;55.694;26.994;2023-08-08T12:30:25;23.3;59.8
72919;SHT30;68407;55.694;26.994;2023-08-08T12:35:54;23.3;59.7
72919;SHT30;68407;55.694;26.994;2023-08-08T12:41:04;23.1;60.2
72919;SHT30;68407;55.694;26.994;2023-08-08T12:45:48;22.9;59.7
72919;SHT30;68407;55.694;26.994;2023-08-08T12:50:24;23;59.6
72919;SHT30;68407;55.694;26.994;2023-08-08T12:56:04;23.3;58.5
72919;SHT30;68407;55.694;26.994;2023-08-08T13:00:30;23.3;58.3
72919;SHT30;68407;55.694;26.994;2023-08-08T13:05:32;23.2;56.6
72919;SHT30;68407;55.694;26.994;2023-08-08T16:20:44;22.4;59.8
72919;SHT30;68407;55.694;26.994;2023-08-08T16:25:38;22.6;58.6
72919;SHT30;68407;55.694;26.994;2023-08-08T16:31:03;23;57
72919;SHT30;68407;55.694;26.994;2023-08-08T16:36:03;23.3;55.9
72919;SHT30;68407;55.694;26.994;2023-08-08T16:41:02;23.2;55.3
72919;SHT30;68407;55.694;26.994;2023-08-08T16:46:03;23.2;55.4
72919;SHT30;68407;55.694;26.994;2023-08-08T16:50:54;23.2;55.2
72919;SHT30;68407;55.694;26.994;2023-08-08T16:55:34;23.2;55.1
72919;SHT30;68407;55.694;26.994;2023-08-08T17:00:54;23.1;55.2
72919;SHT30;68407;55.694;26.994;2023-08-08T17:06:04;23.1;55.4
72919;SHT30;68407;55.694;26.994;2023-08-08T17:10:48;22.9;55.7
72919;SHT30;68407;55.694;26.994;2023-08-08T17:15:32;22.8;56
72919;SHT30;68407;55.694;26.994;2023-08-08T17:21:04;22.7;56.4
72919;SHT30;68407;55.694;26.994;2023-08-08T17:25:48;22.5;56.9
72919;SHT30;68407;55.694;26.994;2023-08-08T17:30:30;22.3;57.8
72919;SHT30;68407;55.694;26.994;2023-08-08T17:35:25;22.1;58.7
72919;SHT30;68407;55.694;26.994;2023-08-08T17:40:46;21.8;59.5
72919;SHT30;68407;55.694;26.994;2023-08-08T17:46:04;21.6;60.2
72919;SHT30;68407;55.694;26.994;2023-08-08T17:50:53;21.4;60.9
72919;SHT30;68407;55.694;26.994;2023-08-08T17:55:38;21.2;61.4
72919;SHT30;68407;55.694;26.994;2023-08-08T18:00:25;20.9;62.4
72919;SHT30;68407;55.694;26.994;2023-08-08T18:05:25;20.7;62.9
72919;SHT30;68407;55.694;26.994;2023-08-08T18:10:33;20.3;63.8
72919;SHT30;68407;55.694;26.994;2023-08-08T18:15:31;20.1;64.4
72919;SHT30;68407;55.694;26.994;2023-08-08T18:20:34;20.2;64.4
72919;SHT30;68407;55.694;26.994;2023-08-08T18:26:04;20.2;64.5
72919;SHT30;68407;55.694;26.994;2023-08-08T18:30:44;20.2;64.8
72919;SHT30;68407;55.694;26.994;2023-08-08T18:35:54;20.1;65.3
72919;SHT30;68407;55.694;26.994;2023-08-08T18:40:49;20.1;65.4
72919;SHT30;68407;55.694;26.994;2023-08-08T18:45:33;20.1;65.5
72919;SHT30;68407;55.694;26.994;2023-08-08T18:50:38;20.1;65.6
72919;SHT30;68407;55.694;26.994;2023-08-08T18:55:55;19.8;65.5
72919;SHT30;68407;55.694;26.994;2023-08-08T19:01:04;19.5;66.1
72919;SHT30;68407;55.694;26.994;2023-08-08T19:05:41;19.3;66.5
72919;SHT30;68407;55.694;26.994;2023-08-08T19:10:45;19.2;66.9
72919;SHT30;68407;55.694;26.994;2023-08-08T19:16:05;19.1;67.2
72919;SHT30;68407;55.694;26.994;2023-08-08T19:20:31;19.2;66.8
72919;SHT30;68407;55.694;26.994;2023-08-08T19:25:41;19.1;66.8
72919;SHT30;68407;55.694;26.994;2023-08-08T19:30:44;18.2;66.4
72919;SHT30;68407;55.694;26.994;2023-08-08T19:35:55;16.3;70.7
72919;SHT30;68407;55.694;26.994;2023-08-08T19:40:25;15.3;73.9
72919;SHT30;68407;55.694;26.994;2023-08-08T19:45:33;14.6;76
72919;SHT30;68407;55.694;26.994;2023-08-08T19:51:07;14.5;77.1
72919;SHT30;68407;55.694;26.994;2023-08-08T19:55:54;14.2;77.3
72919;SHT30;68407;55.694;26.994;2023-08-08T20:00:39;13.9;78.7
72919;SHT30;68407;55.694;26.994;2023-08-08T20:05:24;13.7;79.1
72919;SHT30;68407;55.694;26.994;2023-08-08T20:11:05;13.4;79.7
72919;SHT30;68407;55.694;26.994;2023-08-08T20:15:24;13.3;80.5
72919;SHT30;68407;55.694;26.994;2023-08-08T20:20:25;13.1;80.8
72919;SHT30;68407;55.694;26.994;2023-08-08T20:25:55;13;80.9
72919;SHT30;68407;55.694;26.994;2023-08-08T20:30:55;13.1;80.9
72919;SHT30;68407;55.694;26.994;2023-08-08T20:36:05;13;81
72919;SHT30;68407;55.694;26.994;2023-08-08T20:40:49;13;80.6
72919;SHT30;68407;55.694;26.994;2023-08-08T20:45:27;13;80.8
72919;SHT30;68407;55.694;26.994;2023-08-08T20:50:33;13.1;80.6
72919;SHT30;68407;55.694;26.994;2023-08-08T20:56:07;13.1;80.6
72919;SHT30;68407;55.694;26.994;2023-08-08T21:00:55;13;80.7
72919;SHT30;68407;55.694;26.994;2023-08-08T21:05:55;12.8;81.2
72919;SHT30;68407;55.694;26.994;2023-08-08T21:11:05;12.8;81.6
72919;SHT30;68407;55.694;26.994;2023-08-08T21:15:55;12.7;81.9
72919;SHT30;68407;55.694;26.994;2023-08-08T21:20:25;12.6;82.6
72919;SHT30;68407;55.694;26.994;2023-08-08T21:25:31;12.6;82.3
72919;SHT30;68407;55.694;26.994;2023-08-08T21:31:05;12.5;82.4
72919;SHT30;68407;55.694;26.994;2023-08-08T21:36:05;12.4;82.4
72919;SHT30;68407;55.694;26.994;2023-08-08T21:41:07;12.4;83
72919;SHT30;68407;55.694;26.994;2023-08-08T21:46:03;12.4;83.5
72919;SHT30;68407;55.694;26.994;2023-08-08T21:50:55;12.5;83.1
72919;SHT30;68407;55.694;26.994;2023-08-08T21:55:31;12.6;83
72919;SHT30;68407;55.694;26.994;2023-08-08T22:00:57;12.6;82.7
72919;SHT30;68407;55.694;26.994;2023-08-08T22:06:07;12.5;81.6
72919;SHT30;68407;55.694;26.994;2023-08-08T22:10:49;12.3;82.6
72919;SHT30;68407;55.694;26.994;2023-08-08T22:15:25;12.3;82.9
72919;SHT30;68407;55.694;26.994;2023-08-08T22:21:05;12.3;83.1
72919;SHT30;68407;55.694;26.994;2023-08-08T22:25:27;12.3;83
72919;SHT30;68407;55.694;26.994;2023-08-08T22:30:43;12.1;82.5
72919;SHT30;68407;55.694;26.994;2023-08-08T22:35:39;11.9;82.6
72919;SHT30;68407;55.694;26.994;2023-08-08T22:40:51;12;83.5
72919;SHT30;68407;55.694;26.994;2023-08-08T22:45:43;12;83.4
72919;SHT30;68407;55.694;26.994;2023-08-08T22:50:55;11.8;82.7
72919;SHT30;68407;55.694;26.994;2023-08-08T22:55:25;11.7;83.8
72919;SHT30;68407;55.694;26.994;2023-08-08T23:00:41;11.8;83.9
72919;SHT30;68407;55.694;26.994;2023-08-08T23:05:25;11.8;83.7
72919;SHT30;68407;55.694;26.994;2023-08-08T23:10:41;11.8;83.9
72919;SHT30;68407;55.694;26.994;2023-08-08T23:15:39;11.8;83.4
72919;SHT30;68407;55.694;26.994;2023-08-08T23:20:49;11.7;83.3
72919;SHT30;68407;55.694;26.994;2023-08-08T23:26:05;11.7;84
72919;SHT30;68407;55.694;26.994;2023-08-08T23:30:25;11.7;83.3
72919;SHT30;68407;55.694;26.994;2023-08-08T23:35:39;11.7;83.7
72919;SHT30;68407;55.694;26.994;2023-08-08T23:40:49;11.7;84.1
72919;SHT30;68407;55.694;26.994;2023-08-08T23:45:39;11.9;84.4
72919;SHT30;68407;55.694;26.994;2023-08-08T23:50:47;12.1;83.8
72919;SHT30;68407;55.694;26.994;2023-08-08T23:55:53;12.3;83.7
